Maupin, OR

5:48 PM PST on February 05, 2016 (GMT -0800)
Sportsmans Park | | Change Station
CLOSE
Current Station
Personal Weather Station
Location: Tygh Valley, OR
Elevation: 2293 ft
Nearby Weather Stations

Elev 2293 ft 45.22 °N, 121.40 °W | Updated 8 minutes ago

Partly Cloudy
Partly Cloudy
45.1 °F
Feels Like 45 °F
N
2.7
Wind Variable Wind from West

Today
High -- | Low -- °F
--% Chance of Precip.
Yesterday
High -- | Low -- °F
Precip. -- in
Pressure 30.25 in
Visibility 10.0 miles
Clouds Clear
Windchill 45 °F
Dew Point 34 °F
Humidity 64%
Rainfall 0.00 in
Snow Depth Not available.
7:21 AM 5:18 PM
Waning Crescent, 8% visible
METAR KRDM 060056Z 16008KT 10SM CLR 10/M02 A3022 RMK AO2 SLP242 T01001017
Pressure 30.25 in
Visibility 10.0 miles
Clouds Clear
Windchill 45 °F
Dew Point 34 °F
Humidity 64%
Rainfall 0.00 in
Snow Depth Not available.
7:21 AM 5:18 PM
Waning Crescent, 8% visible
METAR KRDM 060056Z 16008KT 10SM CLR 10/M02 A3022 RMK AO2 SLP242 T01001017

10-Day Weather Forecast

Almanac

Astronomy

Feb. 05, 2016 Rise Set
Actual Time
Civil Twilight
Nautical Twilight
Astronomical Twilight
Moon
Length of Visible Light
Length of Day
Tomorrow will be .
, % of the Moon is Illuminated

Today's Extremes

State Highs State Lows

Community

WunderPhotos

Upload Photos

1,890,906 photos uploaded!

WunderBlog® & News

Nearby

Air Quality

  Air Quality AQ Index Pollutant
Not available.

Snow Depth

Station Depth Elevation

Earthquake Activity

City Distance Mag. Time & Date
Minimum magnitude displayed is 2.5.

Coastal Water Temperatures

Place Temperature

Stations

Nearby Weather Stations

Station Location Temp. Windchill Dew Point Humidity Wind Precip. Elev Updated Type
                   

Watches & Warnings

There are currently no watches in effect.